sensor_id;sensor_type;location;lat;lon;timestamp;P1;durP1;ratioP1;P2;durP2;ratioP2
78968;SDS011;68369;51.050;17.018;2023-05-14T00:10:48;11.80;;;7.20;;
78968;SDS011;68369;51.050;17.018;2023-05-14T00:16:43;13.60;;;7.90;;
78968;SDS011;68369;51.050;17.018;2023-05-14T00:22:34;15.70;;;9.10;;
78968;SDS011;68369;51.050;17.018;2023-05-14T00:31:31;15.00;;;8.10;;
78968;SDS011;68369;51.050;17.018;2023-05-14T00:34:18;12.80;;;7.30;;
78968;SDS011;68369;51.050;17.018;2023-05-14T00:37:04;10.70;;;6.30;;
78968;SDS011;68369;51.050;17.018;2023-05-14T00:42:29;8.70;;;5.10;;
78968;SDS011;68369;51.050;17.018;2023-05-14T00:48:12;9.90;;;5.80;;
78968;SDS011;68369;51.050;17.018;2023-05-14T00:50:57;9.30;;;5.50;;
78968;SDS011;68369;51.050;17.018;2023-05-14T01:13:01;10.80;;;6.00;;
78968;SDS011;68369;51.050;17.018;2023-05-14T01:15:55;13.00;;;7.00;;
78968;SDS011;68369;51.050;17.018;2023-05-14T01:18:41;18.80;;;8.10;;
78968;SDS011;68369;51.050;17.018;2023-05-14T01:21:37;16.90;;;8.30;;
78968;SDS011;68369;51.050;17.018;2023-05-14T01:34:03;8.90;;;5.30;;
78968;SDS011;68369;51.050;17.018;2023-05-14T01:39:58;8.30;;;4.80;;
78968;SDS011;68369;51.050;17.018;2023-05-14T01:52:38;9.90;;;4.90;;
78968;SDS011;68369;51.050;17.018;2023-05-14T01:58:26;7.80;;;5.30;;
78968;SDS011;68369;51.050;17.018;2023-05-14T02:01:12;9.20;;;5.30;;
78968;SDS011;68369;51.050;17.018;2023-05-14T02:03:58;8.40;;;5.30;;
78968;SDS011;68369;51.050;17.018;2023-05-14T02:09:32;10.10;;;5.10;;
78968;SDS011;68369;51.050;17.018;2023-05-14T02:12:17;7.10;;;4.50;;
78968;SDS011;68369;51.050;17.018;2023-05-14T02:15:02;6.00;;;3.60;;
78968;SDS011;68369;51.050;17.018;2023-05-14T02:17:48;8.00;;;4.10;;
78968;SDS011;68369;51.050;17.018;2023-05-14T02:20:33;9.80;;;4.30;;
78968;SDS011;68369;51.050;17.018;2023-05-14T02:26:28;8.60;;;4.70;;
78968;SDS011;68369;51.050;17.018;2023-05-14T02:29:15;6.40;;;4.30;;
78968;SDS011;68369;51.050;17.018;2023-05-14T02:32:03;8.10;;;5.00;;
78968;SDS011;68369;51.050;17.018;2023-05-14T02:34:49;9.20;;;5.30;;
78968;SDS011;68369;51.050;17.018;2023-05-14T02:37:34;7.40;;;4.50;;
78968;SDS011;68369;51.050;17.018;2023-05-14T02:40:19;6.90;;;4.30;;
78968;SDS011;68369;51.050;17.018;2023-05-14T02:43:04;9.20;;;4.80;;
78968;SDS011;68369;51.050;17.018;2023-05-14T02:55:34;7.80;;;5.50;;
78968;SDS011;68369;51.050;17.018;2023-05-14T02:58:19;6.90;;;4.20;;
78968;SDS011;68369;51.050;17.018;2023-05-14T03:03:49;5.90;;;4.30;;
78968;SDS011;68369;51.050;17.018;2023-05-14T03:06:36;11.30;;;5.90;;
78968;SDS011;68369;51.050;17.018;2023-05-14T03:09:21;10.90;;;5.90;;
78968;SDS011;68369;51.050;17.018;2023-05-14T03:15:09;7.50;;;5.10;;
78968;SDS011;68369;51.050;17.018;2023-05-14T03:21:26;9.30;;;5.20;;
78968;SDS011;68369;51.050;17.018;2023-05-14T03:30:26;8.90;;;4.90;;
78968;SDS011;68369;51.050;17.018;2023-05-14T03:33:13;8.00;;;4.80;;
78968;SDS011;68369;51.050;17.018;2023-05-14T03:35:58;8.50;;;5.20;;
78968;SDS011;68369;51.050;17.018;2023-05-14T03:38:43;6.40;;;4.20;;
78968;SDS011;68369;51.050;17.018;2023-05-14T03:41:28;6.40;;;4.10;;
78968;SDS011;68369;51.050;17.018;2023-05-14T03:44:14;6.00;;;3.90;;
78968;SDS011;68369;51.050;17.018;2023-05-14T03:49:41;8.30;;;5.00;;
78968;SDS011;68369;51.050;17.018;2023-05-14T03:52:27;8.10;;;4.70;;
78968;SDS011;68369;51.050;17.018;2023-05-14T03:58:21;10.90;;;5.60;;
78968;SDS011;68369;51.050;17.018;2023-05-14T04:01:07;8.60;;;5.30;;
78968;SDS011;68369;51.050;17.018;2023-05-14T04:07:19;7.80;;;5.10;;
78968;SDS011;68369;51.050;17.018;2023-05-14T04:12:58;7.00;;;4.20;;
78968;SDS011;68369;51.050;17.018;2023-05-14T04:15:45;7.70;;;3.90;;
78968;SDS011;68369;51.050;17.018;2023-05-14T04:25:01;7.10;;;4.70;;
78968;SDS011;68369;51.050;17.018;2023-05-14T04:30:57;7.60;;;4.80;;
78968;SDS011;68369;51.050;17.018;2023-05-14T04:33:43;8.10;;;4.70;;
78968;SDS011;68369;51.050;17.018;2023-05-14T04:36:29;8.10;;;4.80;;
78968;SDS011;68369;51.050;17.018;2023-05-14T04:39:15;8.00;;;4.70;;
78968;SDS011;68369;51.050;17.018;2023-05-14T04:42:00;8.40;;;4.60;;
78968;SDS011;68369;51.050;17.018;2023-05-14T04:44:45;7.40;;;4.30;;
78968;SDS011;68369;51.050;17.018;2023-05-14T04:47:30;6.30;;;3.80;;
78968;SDS011;68369;51.050;17.018;2023-05-14T04:50:19;7.10;;;4.60;;
78968;SDS011;68369;51.050;17.018;2023-05-14T04:53:09;7.10;;;4.40;;
78968;SDS011;68369;51.050;17.018;2023-05-14T04:55:55;8.90;;;5.00;;
78968;SDS011;68369;51.050;17.018;2023-05-14T04:58:42;7.80;;;5.00;;
78968;SDS011;68369;51.050;17.018;2023-05-14T05:01:27;9.00;;;5.30;;
78968;SDS011;68369;51.050;17.018;2023-05-14T05:04:13;13.40;;;5.40;;
78968;SDS011;68369;51.050;17.018;2023-05-14T05:07:00;7.50;;;5.10;;
78968;SDS011;68369;51.050;17.018;2023-05-14T05:09:46;7.70;;;5.00;;
78968;SDS011;68369;51.050;17.018;2023-05-14T05:12:32;7.40;;;4.60;;
78968;SDS011;68369;51.050;17.018;2023-05-14T05:15:19;8.60;;;5.20;;
78968;SDS011;68369;51.050;17.018;2023-05-14T05:21:30;7.50;;;4.90;;
78968;SDS011;68369;51.050;17.018;2023-05-14T05:27:09;6.10;;;4.60;;
78968;SDS011;68369;51.050;17.018;2023-05-14T05:29:55;7.10;;;5.70;;
78968;SDS011;68369;51.050;17.018;2023-05-14T05:38:56;7.00;;;4.80;;
78968;SDS011;68369;51.050;17.018;2023-05-14T05:41:41;9.00;;;5.20;;
78968;SDS011;68369;51.050;17.018;2023-05-14T05:44:28;6.80;;;4.00;;
78968;SDS011;68369;51.050;17.018;2023-05-14T05:50:13;7.10;;;4.70;;
78968;SDS011;68369;51.050;17.018;2023-05-14T05:52:59;7.90;;;5.00;;
78968;SDS011;68369;51.050;17.018;2023-05-14T05:55:45;6.60;;;4.50;;
78968;SDS011;68369;51.050;17.018;2023-05-14T05:58:30;8.80;;;4.70;;
78968;SDS011;68369;51.050;17.018;2023-05-14T06:04:08;8.60;;;5.80;;
78968;SDS011;68369;51.050;17.018;2023-05-14T06:10:25;7.90;;;5.50;;
78968;SDS011;68369;51.050;17.018;2023-05-14T06:13:10;11.40;;;4.70;;
78968;SDS011;68369;51.050;17.018;2023-05-14T06:15:56;9.10;;;6.00;;
78968;SDS011;68369;51.050;17.018;2023-05-14T06:38:00;9.90;;;5.20;;
78968;SDS011;68369;51.050;17.018;2023-05-14T06:40:45;13.10;;;5.90;;
78968;SDS011;68369;51.050;17.018;2023-05-14T06:52:31;7.30;;;4.60;;
78968;SDS011;68369;51.050;17.018;2023-05-14T06:58:08;7.50;;;4.50;;
78968;SDS011;68369;51.050;17.018;2023-05-14T07:00:55;6.60;;;4.00;;
78968;SDS011;68369;51.050;17.018;2023-05-14T07:10:23;5.20;;;3.70;;
78968;SDS011;68369;51.050;17.018;2023-05-14T07:26:09;2.80;;;2.30;;
78968;SDS011;68369;51.050;17.018;2023-05-14T07:28:56;3.10;;;2.50;;
78968;SDS011;68369;51.050;17.018;2023-05-14T07:31:41;3.80;;;2.30;;
78968;SDS011;68369;51.050;17.018;2023-05-14T07:34:26;3.90;;;2.40;;
78968;SDS011;68369;51.050;17.018;2023-05-14T07:37:12;4.10;;;2.60;;
78968;SDS011;68369;51.050;17.018;2023-05-14T07:39:57;5.30;;;2.70;;
78968;SDS011;68369;51.050;17.018;2023-05-14T07:42:43;4.00;;;2.50;;
78968;SDS011;68369;51.050;17.018;2023-05-14T07:45:28;3.60;;;2.30;;
78968;SDS011;68369;51.050;17.018;2023-05-14T07:48:13;17.00;;;13.80;;
78968;SDS011;68369;51.050;17.018;2023-05-14T07:50:59;5.90;;;4.50;;
78968;SDS011;68369;51.050;17.018;2023-05-14T07:53:44;5.50;;;2.70;;
78968;SDS011;68369;51.050;17.018;2023-05-14T07:56:29;5.30;;;4.60;;
78968;SDS011;68369;51.050;17.018;2023-05-14T07:59:17;2.80;;;2.50;;
78968;SDS011;68369;51.050;17.018;2023-05-14T08:02:03;3.20;;;2.70;;
78968;SDS011;68369;51.050;17.018;2023-05-14T08:04:50;3.60;;;2.40;;
78968;SDS011;68369;51.050;17.018;2023-05-14T08:07:37;2.10;;;2.00;;
78968;SDS011;68369;51.050;17.018;2023-05-14T08:10:23;4.80;;;2.10;;
78968;SDS011;68369;51.050;17.018;2023-05-14T08:13:09;3.20;;;1.90;;
78968;SDS011;68369;51.050;17.018;2023-05-14T08:15:54;2.80;;;1.70;;
78968;SDS011;68369;51.050;17.018;2023-05-14T08:18:40;5.00;;;2.00;;
78968;SDS011;68369;51.050;17.018;2023-05-14T08:40:58;4.30;;;2.00;;
78968;SDS011;68369;51.050;17.018;2023-05-14T08:46:38;2.00;;;1.70;;
78968;SDS011;68369;51.050;17.018;2023-05-14T08:49:38;1.70;;;1.50;;
78968;SDS011;68369;51.050;17.018;2023-05-14T09:25:37;2.50;;;1.40;;
78968;SDS011;68369;51.050;17.018;2023-05-14T09:40:57;2.00;;;1.10;;
78968;SDS011;68369;51.050;17.018;2023-05-14T09:46:52;2.20;;;1.30;;
78968;SDS011;68369;51.050;17.018;2023-05-14T09:52:31;2.10;;;1.30;;
78968;SDS011;68369;51.050;17.018;2023-05-14T09:55:17;1.30;;;0.70;;
78968;SDS011;68369;51.050;17.018;2023-05-14T10:04:26;1.10;;;0.70;;
78968;SDS011;68369;51.050;17.018;2023-05-14T10:07:13;1.40;;;0.90;;
78968;SDS011;68369;51.050;17.018;2023-05-14T10:12:40;1.20;;;0.80;;
78968;SDS011;68369;51.050;17.018;2023-05-14T10:21:39;1.40;;;0.80;;
78968;SDS011;68369;51.050;17.018;2023-05-14T10:24:30;2.00;;;1.00;;
78968;SDS011;68369;51.050;17.018;2023-05-14T10:27:18;1.30;;;1.00;;
78968;SDS011;68369;51.050;17.018;2023-05-14T10:30:09;1.20;;;0.90;;
78968;SDS011;68369;51.050;17.018;2023-05-14T10:33:06;1.60;;;1.00;;
78968;SDS011;68369;51.050;17.018;2023-05-14T10:53:59;1.80;;;1.20;;
78968;SDS011;68369;51.050;17.018;2023-05-14T10:56:46;3.20;;;1.30;;
78968;SDS011;68369;51.050;17.018;2023-05-14T10:59:32;1.40;;;0.90;;
78968;SDS011;68369;51.050;17.018;2023-05-14T11:05:13;1.20;;;0.90;;
78968;SDS011;68369;51.050;17.018;2023-05-14T11:08:01;3.10;;;1.40;;
78968;SDS011;68369;51.050;17.018;2023-05-14T11:14:06;2.00;;;1.40;;
78968;SDS011;68369;51.050;17.018;2023-05-14T11:19:47;3.00;;;1.50;;
78968;SDS011;68369;51.050;17.018;2023-05-14T11:25:30;1.80;;;1.10;;
78968;SDS011;68369;51.050;17.018;2023-05-14T11:56:53;1.50;;;1.00;;
78968;SDS011;68369;51.050;17.018;2023-05-14T11:59:39;3.50;;;1.20;;
78968;SDS011;68369;51.050;17.018;2023-05-14T12:02:25;2.10;;;1.20;;
78968;SDS011;68369;51.050;17.018;2023-05-14T12:05:14;2.00;;;1.60;;
78968;SDS011;68369;51.050;17.018;2023-05-14T12:08:00;2.30;;;1.40;;
78968;SDS011;68369;51.050;17.018;2023-05-14T12:10:45;3.30;;;1.60;;
78968;SDS011;68369;51.050;17.018;2023-05-14T12:13:31;2.10;;;1.40;;
78968;SDS011;68369;51.050;17.018;2023-05-14T12:16:20;2.30;;;1.30;;
78968;SDS011;68369;51.050;17.018;2023-05-14T12:19:07;2.90;;;1.70;;
78968;SDS011;68369;51.050;17.018;2023-05-14T12:21:59;1.70;;;1.40;;
78968;SDS011;68369;51.050;17.018;2023-05-14T12:24:54;3.00;;;1.50;;
78968;SDS011;68369;51.050;17.018;2023-05-14T12:27:43;2.10;;;1.60;;
78968;SDS011;68369;51.050;17.018;2023-05-14T12:30:35;2.20;;;1.40;;
78968;SDS011;68369;51.050;17.018;2023-05-14T12:33:24;2.10;;;1.20;;
78968;SDS011;68369;51.050;17.018;2023-05-14T12:49:33;1.80;;;1.00;;
78968;SDS011;68369;51.050;17.018;2023-05-14T12:52:19;3.00;;;1.10;;
78968;SDS011;68369;51.050;17.018;2023-05-14T12:55:21;2.70;;;1.70;;
78968;SDS011;68369;51.050;17.018;2023-05-14T12:58:09;2.70;;;1.40;;
78968;SDS011;68369;51.050;17.018;2023-05-14T13:00:55;2.20;;;1.60;;
78968;SDS011;68369;51.050;17.018;2023-05-14T13:03:40;4.40;;;2.20;;
78968;SDS011;68369;51.050;17.018;2023-05-14T13:06:26;3.50;;;2.30;;
78968;SDS011;68369;51.050;17.018;2023-05-14T13:09:12;3.50;;;1.90;;
78968;SDS011;68369;51.050;17.018;2023-05-14T13:11:57;2.60;;;1.80;;
78968;SDS011;68369;51.050;17.018;2023-05-14T13:14:43;3.50;;;2.00;;
78968;SDS011;68369;51.050;17.018;2023-05-14T13:17:28;3.60;;;2.50;;
78968;SDS011;68369;51.050;17.018;2023-05-14T13:20:16;3.40;;;2.10;;
78968;SDS011;68369;51.050;17.018;2023-05-14T13:23:02;3.20;;;2.10;;
78968;SDS011;68369;51.050;17.018;2023-05-14T13:25:48;3.70;;;2.20;;
78968;SDS011;68369;51.050;17.018;2023-05-14T13:28:34;3.80;;;2.50;;
78968;SDS011;68369;51.050;17.018;2023-05-14T13:31:19;4.60;;;3.10;;
78968;SDS011;68369;51.050;17.018;2023-05-14T13:34:05;2.60;;;2.30;;
78968;SDS011;68369;51.050;17.018;2023-05-14T13:36:50;3.30;;;2.10;;
78968;SDS011;68369;51.050;17.018;2023-05-14T13:39:36;3.60;;;2.40;;
78968;SDS011;68369;51.050;17.018;2023-05-14T13:42:22;3.40;;;2.60;;
78968;SDS011;68369;51.050;17.018;2023-05-14T13:45:07;3.80;;;2.60;;
78968;SDS011;68369;51.050;17.018;2023-05-14T13:47:57;3.60;;;2.40;;
78968;SDS011;68369;51.050;17.018;2023-05-14T13:50:42;2.90;;;2.10;;
78968;SDS011;68369;51.050;17.018;2023-05-14T13:53:28;7.20;;;2.80;;
78968;SDS011;68369;51.050;17.018;2023-05-14T14:09:02;3.20;;;2.30;;
78968;SDS011;68369;51.050;17.018;2023-05-14T14:11:48;4.20;;;2.80;;
78968;SDS011;68369;51.050;17.018;2023-05-14T14:14:38;3.60;;;2.90;;
78968;SDS011;68369;51.050;17.018;2023-05-14T14:17:23;6.50;;;3.10;;
78968;SDS011;68369;51.050;17.018;2023-05-14T14:20:09;5.40;;;2.90;;
78968;SDS011;68369;51.050;17.018;2023-05-14T14:22:57;4.00;;;3.00;;
78968;SDS011;68369;51.050;17.018;2023-05-14T14:25:43;7.10;;;3.40;;
78968;SDS011;68369;51.050;17.018;2023-05-14T14:28:28;7.40;;;3.10;;
78968;SDS011;68369;51.050;17.018;2023-05-14T14:31:15;7.50;;;3.80;;
78968;SDS011;68369;51.050;17.018;2023-05-14T14:34:02;7.80;;;3.40;;
78968;SDS011;68369;51.050;17.018;2023-05-14T14:36:47;4.40;;;3.00;;
78968;SDS011;68369;51.050;17.018;2023-05-14T14:50:56;5.30;;;3.10;;
78968;SDS011;68369;51.050;17.018;2023-05-14T14:53:42;4.30;;;2.70;;
78968;SDS011;68369;51.050;17.018;2023-05-14T14:56:27;4.60;;;2.60;;
78968;SDS011;68369;51.050;17.018;2023-05-14T14:59:12;6.30;;;2.60;;
78968;SDS011;68369;51.050;17.018;2023-05-14T15:01:58;7.80;;;3.10;;
78968;SDS011;68369;51.050;17.018;2023-05-14T15:04:43;6.00;;;3.60;;
78968;SDS011;68369;51.050;17.018;2023-05-14T15:07:29;9.40;;;2.60;;
78968;SDS011;68369;51.050;17.018;2023-05-14T15:13:05;4.80;;;3.30;;
78968;SDS011;68369;51.050;17.018;2023-05-14T15:15:56;4.40;;;3.60;;
78968;SDS011;68369;51.050;17.018;2023-05-14T15:18:41;6.80;;;3.90;;
78968;SDS011;68369;51.050;17.018;2023-05-14T15:21:27;5.30;;;3.60;;
78968;SDS011;68369;51.050;17.018;2023-05-14T15:40:21;8.70;;;3.40;;
78968;SDS011;68369;51.050;17.018;2023-05-14T15:43:08;4.20;;;2.70;;
78968;SDS011;68369;51.050;17.018;2023-05-14T15:49:09;7.10;;;3.20;;
78968;SDS011;68369;51.050;17.018;2023-05-14T15:51:55;4.00;;;3.10;;
78968;SDS011;68369;51.050;17.018;2023-05-14T15:54:41;9.70;;;5.10;;
78968;SDS011;68369;51.050;17.018;2023-05-14T15:57:26;13.80;;;7.40;;
78968;SDS011;68369;51.050;17.018;2023-05-14T16:00:12;11.20;;;6.60;;
78968;SDS011;68369;51.050;17.018;2023-05-14T16:02:58;20.00;;;11.50;;
78968;SDS011;68369;51.050;17.018;2023-05-14T16:05:44;44.00;;;19.40;;
78968;SDS011;68369;51.050;17.018;2023-05-14T16:08:30;9.50;;;5.60;;
78968;SDS011;68369;51.050;17.018;2023-05-14T16:11:16;10.50;;;4.30;;
78968;SDS011;68369;51.050;17.018;2023-05-14T16:20:42;4.40;;;3.20;;
78968;SDS011;68369;51.050;17.018;2023-05-14T16:23:29;6.40;;;3.20;;
78968;SDS011;68369;51.050;17.018;2023-05-14T16:26:14;5.00;;;3.10;;
78968;SDS011;68369;51.050;17.018;2023-05-14T16:29:00;7.80;;;3.80;;
78968;SDS011;68369;51.050;17.018;2023-05-14T17:25:13;4.20;;;3.50;;
78968;SDS011;68369;51.050;17.018;2023-05-14T17:28:00;6.90;;;4.40;;
78968;SDS011;68369;51.050;17.018;2023-05-14T17:30:46;7.70;;;4.10;;
78968;SDS011;68369;51.050;17.018;2023-05-14T17:33:32;5.00;;;4.00;;
78968;SDS011;68369;51.050;17.018;2023-05-14T17:46:39;7.80;;;4.10;;
78968;SDS011;68369;51.050;17.018;2023-05-14T17:49:26;6.00;;;4.00;;
78968;SDS011;68369;51.050;17.018;2023-05-14T17:52:12;5.20;;;4.10;;
78968;SDS011;68369;51.050;17.018;2023-05-14T18:04:44;4.80;;;4.10;;
78968;SDS011;68369;51.050;17.018;2023-05-14T18:10:39;8.30;;;4.20;;
78968;SDS011;68369;51.050;17.018;2023-05-14T18:13:27;7.40;;;4.70;;
78968;SDS011;68369;51.050;17.018;2023-05-14T18:16:14;7.40;;;5.10;;
78968;SDS011;68369;51.050;17.018;2023-05-14T18:19:03;7.10;;;5.30;;
78968;SDS011;68369;51.050;17.018;2023-05-14T18:21:49;9.80;;;4.90;;
78968;SDS011;68369;51.050;17.018;2023-05-14T18:24:35;9.00;;;4.90;;
78968;SDS011;68369;51.050;17.018;2023-05-14T18:27:20;9.10;;;5.20;;
78968;SDS011;68369;51.050;17.018;2023-05-14T18:30:10;12.30;;;5.40;;
78968;SDS011;68369;51.050;17.018;2023-05-14T18:32:58;6.10;;;4.30;;
78968;SDS011;68369;51.050;17.018;2023-05-14T18:35:47;6.70;;;4.80;;
78968;SDS011;68369;51.050;17.018;2023-05-14T18:38:33;6.10;;;4.70;;
78968;SDS011;68369;51.050;17.018;2023-05-14T18:41:18;6.30;;;4.20;;
78968;SDS011;68369;51.050;17.018;2023-05-14T18:44:04;10.70;;;4.50;;
78968;SDS011;68369;51.050;17.018;2023-05-14T18:46:49;7.90;;;4.80;;
78968;SDS011;68369;51.050;17.018;2023-05-14T18:52:50;7.40;;;4.50;;
78968;SDS011;68369;51.050;17.018;2023-05-14T18:55:37;6.80;;;4.90;;
78968;SDS011;68369;51.050;17.018;2023-05-14T18:58:24;8.60;;;4.50;;
78968;SDS011;68369;51.050;17.018;2023-05-14T19:01:10;9.40;;;4.90;;
78968;SDS011;68369;51.050;17.018;2023-05-14T19:03:55;6.70;;;4.70;;
78968;SDS011;68369;51.050;17.018;2023-05-14T19:06:41;7.00;;;4.70;;
78968;SDS011;68369;51.050;17.018;2023-05-14T19:09:27;7.20;;;4.70;;
78968;SDS011;68369;51.050;17.018;2023-05-14T19:12:12;7.50;;;5.50;;
78968;SDS011;68369;51.050;17.018;2023-05-14T19:21:51;7.00;;;4.70;;
78968;SDS011;68369;51.050;17.018;2023-05-14T19:24:38;7.80;;;5.00;;
78968;SDS011;68369;51.050;17.018;2023-05-14T19:27:27;6.80;;;4.80;;
78968;SDS011;68369;51.050;17.018;2023-05-14T19:30:13;5.60;;;4.70;;
78968;SDS011;68369;51.050;17.018;2023-05-14T19:32:59;9.50;;;5.40;;
78968;SDS011;68369;51.050;17.018;2023-05-14T19:35:44;5.70;;;4.80;;
78968;SDS011;68369;51.050;17.018;2023-05-14T19:38:31;6.30;;;4.20;;
78968;SDS011;68369;51.050;17.018;2023-05-14T19:41:17;7.40;;;5.60;;
78968;SDS011;68369;51.050;17.018;2023-05-14T19:44:06;7.10;;;5.10;;
78968;SDS011;68369;51.050;17.018;2023-05-14T19:46:51;9.90;;;5.60;;
78968;SDS011;68369;51.050;17.018;2023-05-14T19:49:36;8.90;;;6.50;;
78968;SDS011;68369;51.050;17.018;2023-05-14T19:52:22;9.40;;;6.20;;
78968;SDS011;68369;51.050;17.018;2023-05-14T19:55:08;12.00;;;6.50;;
78968;SDS011;68369;51.050;17.018;2023-05-14T19:57:55;9.50;;;7.10;;
78968;SDS011;68369;51.050;17.018;2023-05-14T20:04:00;9.80;;;6.30;;
78968;SDS011;68369;51.050;17.018;2023-05-14T20:06:46;8.50;;;6.40;;
78968;SDS011;68369;51.050;17.018;2023-05-14T20:09:31;9.00;;;7.00;;
78968;SDS011;68369;51.050;17.018;2023-05-14T20:12:17;9.20;;;6.50;;
78968;SDS011;68369;51.050;17.018;2023-05-14T20:15:03;9.60;;;6.80;;
78968;SDS011;68369;51.050;17.018;2023-05-14T20:17:50;11.80;;;7.30;;
78968;SDS011;68369;51.050;17.018;2023-05-14T20:20:37;9.70;;;6.30;;
78968;SDS011;68369;51.050;17.018;2023-05-14T20:23:24;11.30;;;7.50;;
78968;SDS011;68369;51.050;17.018;2023-05-14T20:26:09;12.00;;;7.30;;
78968;SDS011;68369;51.050;17.018;2023-05-14T20:28:55;11.10;;;6.80;;
78968;SDS011;68369;51.050;17.018;2023-05-14T20:31:40;11.50;;;7.50;;
78968;SDS011;68369;51.050;17.018;2023-05-14T20:34:26;10.40;;;7.50;;
78968;SDS011;68369;51.050;17.018;2023-05-14T20:37:11;15.00;;;6.90;;
78968;SDS011;68369;51.050;17.018;2023-05-14T20:39:58;9.10;;;7.30;;
78968;SDS011;68369;51.050;17.018;2023-05-14T20:42:47;9.50;;;7.40;;
78968;SDS011;68369;51.050;17.018;2023-05-14T20:45:36;9.60;;;7.30;;
78968;SDS011;68369;51.050;17.018;2023-05-14T20:48:28;11.40;;;7.40;;
78968;SDS011;68369;51.050;17.018;2023-05-14T20:51:14;8.80;;;7.10;;
78968;SDS011;68369;51.050;17.018;2023-05-14T20:54:06;12.10;;;7.60;;
78968;SDS011;68369;51.050;17.018;2023-05-14T20:56:52;12.30;;;7.10;;
78968;SDS011;68369;51.050;17.018;2023-05-14T20:59:38;10.80;;;6.70;;
78968;SDS011;68369;51.050;17.018;2023-05-14T21:02:28;11.90;;;7.50;;
78968;SDS011;68369;51.050;17.018;2023-05-14T21:05:18;9.50;;;7.10;;
78968;SDS011;68369;51.050;17.018;2023-05-14T21:08:05;9.60;;;7.20;;
78968;SDS011;68369;51.050;17.018;2023-05-14T21:10:53;8.80;;;6.60;;
78968;SDS011;68369;51.050;17.018;2023-05-14T21:13:39;12.10;;;6.90;;
78968;SDS011;68369;51.050;17.018;2023-05-14T21:16:24;9.40;;;6.20;;
78968;SDS011;68369;51.050;17.018;2023-05-14T21:19:10;10.90;;;7.20;;
78968;SDS011;68369;51.050;17.018;2023-05-14T21:21:58;9.70;;;6.40;;
78968;SDS011;68369;51.050;17.018;2023-05-14T21:24:44;7.70;;;6.50;;
78968;SDS011;68369;51.050;17.018;2023-05-14T21:27:29;8.10;;;6.10;;
78968;SDS011;68369;51.050;17.018;2023-05-14T21:30:15;8.90;;;6.30;;
78968;SDS011;68369;51.050;17.018;2023-05-14T21:33:00;13.50;;;8.10;;
78968;SDS011;68369;51.050;17.018;2023-05-14T21:35:48;10.70;;;7.40;;
78968;SDS011;68369;51.050;17.018;2023-05-14T21:38:33;12.40;;;8.30;;
78968;SDS011;68369;51.050;17.018;2023-05-14T21:41:19;11.50;;;8.00;;
78968;SDS011;68369;51.050;17.018;2023-05-14T21:44:06;11.20;;;8.30;;
78968;SDS011;68369;51.050;17.018;2023-05-14T21:46:51;10.20;;;7.30;;
78968;SDS011;68369;51.050;17.018;2023-05-14T21:49:37;11.90;;;8.70;;
78968;SDS011;68369;51.050;17.018;2023-05-14T21:52:22;15.50;;;8.80;;
78968;SDS011;68369;51.050;17.018;2023-05-14T21:55:08;11.90;;;8.70;;
78968;SDS011;68369;51.050;17.018;2023-05-14T21:58:12;11.70;;;7.90;;
78968;SDS011;68369;51.050;17.018;2023-05-14T22:00:58;11.50;;;8.50;;
78968;SDS011;68369;51.050;17.018;2023-05-14T22:03:44;11.50;;;8.10;;
78968;SDS011;68369;51.050;17.018;2023-05-14T22:06:30;12.20;;;8.50;;
78968;SDS011;68369;51.050;17.018;2023-05-14T22:09:16;12.30;;;8.90;;
78968;SDS011;68369;51.050;17.018;2023-05-14T22:15:13;12.90;;;8.90;;
78968;SDS011;68369;51.050;17.018;2023-05-14T22:17:59;12.60;;;9.60;;
78968;SDS011;68369;51.050;17.018;2023-05-14T22:20:52;10.70;;;8.60;;
78968;SDS011;68369;51.050;17.018;2023-05-14T22:23:37;12.00;;;8.80;;
78968;SDS011;68369;51.050;17.018;2023-05-14T22:26:23;13.20;;;9.40;;
78968;SDS011;68369;51.050;17.018;2023-05-14T22:29:08;15.80;;;9.90;;
78968;SDS011;68369;51.050;17.018;2023-05-14T22:31:54;13.20;;;9.20;;
78968;SDS011;68369;51.050;17.018;2023-05-14T22:34:40;12.50;;;9.60;;
78968;SDS011;68369;51.050;17.018;2023-05-14T22:37:25;12.00;;;9.30;;
78968;SDS011;68369;51.050;17.018;2023-05-14T22:40:11;10.80;;;8.60;;
78968;SDS011;68369;51.050;17.018;2023-05-14T22:42:58;13.60;;;9.30;;
78968;SDS011;68369;51.050;17.018;2023-05-14T22:45:44;11.70;;;9.00;;
78968;SDS011;68369;51.050;17.018;2023-05-14T22:48:30;14.00;;;10.10;;
78968;SDS011;68369;51.050;17.018;2023-05-14T22:51:15;12.80;;;9.20;;
78968;SDS011;68369;51.050;17.018;2023-05-14T23:07:08;15.00;;;9.90;;
78968;SDS011;68369;51.050;17.018;2023-05-14T23:09:54;11.50;;;9.90;;
78968;SDS011;68369;51.050;17.018;2023-05-14T23:12:40;13.20;;;10.20;;
78968;SDS011;68369;51.050;17.018;2023-05-14T23:21:55;15.40;;;10.70;;
78968;SDS011;68369;51.050;17.018;2023-05-14T23:24:43;16.20;;;11.20;;
78968;SDS011;68369;51.050;17.018;2023-05-14T23:27:29;14.30;;;10.20;;
78968;SDS011;68369;51.050;17.018;2023-05-14T23:30:14;14.10;;;10.50;;
78968;SDS011;68369;51.050;17.018;2023-05-14T23:33:00;15.40;;;12.30;;
78968;SDS011;68369;51.050;17.018;2023-05-14T23:35:45;17.10;;;12.40;;
78968;SDS011;68369;51.050;17.018;2023-05-14T23:38:32;15.10;;;12.20;;
78968;SDS011;68369;51.050;17.018;2023-05-14T23:41:20;16.40;;;11.90;;
78968;SDS011;68369;51.050;17.018;2023-05-14T23:44:05;16.40;;;12.40;;
78968;SDS011;68369;51.050;17.018;2023-05-14T23:46:53;14.90;;;12.10;;
78968;SDS011;68369;51.050;17.018;2023-05-14T23:49:40;15.60;;;10.80;;
78968;SDS011;68369;51.050;17.018;2023-05-14T23:52:25;13.70;;;10.80;;
78968;SDS011;68369;51.050;17.018;2023-05-14T23:55:11;13.10;;;10.30;;
